sensor_id;sensor_type;location;lat;lon;timestamp;P1;durP1;ratioP1;P2;durP2;ratioP2
7545;SDS011;3814;51.454;12.616;2024-03-07T00:02:16;43.90;;;16.13;;
7545;SDS011;3814;51.454;12.616;2024-03-07T00:04:42;37.13;;;15.93;;
7545;SDS011;3814;51.454;12.616;2024-03-07T00:07:08;43.30;;;15.60;;
7545;SDS011;3814;51.454;12.616;2024-03-07T00:09:33;49.28;;;17.58;;
7545;SDS011;3814;51.454;12.616;2024-03-07T00:12:03;42.83;;;17.52;;
7545;SDS011;3814;51.454;12.616;2024-03-07T00:14:29;52.63;;;19.88;;
7545;SDS011;3814;51.454;12.616;2024-03-07T00:16:54;51.30;;;20.38;;
7545;SDS011;3814;51.454;12.616;2024-03-07T00:19:24;52.22;;;19.33;;
7545;SDS011;3814;51.454;12.616;2024-03-07T00:21:52;52.60;;;21.02;;
7545;SDS011;3814;51.454;12.616;2024-03-07T00:24:18;49.63;;;17.98;;
7545;SDS011;3814;51.454;12.616;2024-03-07T00:26:44;52.30;;;20.60;;
7545;SDS011;3814;51.454;12.616;2024-03-07T00:29:09;51.60;;;20.20;;
7545;SDS011;3814;51.454;12.616;2024-03-07T00:31:35;57.38;;;20.73;;
7545;SDS011;3814;51.454;12.616;2024-03-07T00:34:00;50.07;;;20.37;;
7545;SDS011;3814;51.454;12.616;2024-03-07T00:36:26;57.83;;;20.63;;
7545;SDS011;3814;51.454;12.616;2024-03-07T00:38:51;52.40;;;19.97;;
7545;SDS011;3814;51.454;12.616;2024-03-07T00:41:17;52.50;;;19.67;;
7545;SDS011;3814;51.454;12.616;2024-03-07T00:43:42;59.23;;;21.03;;
7545;SDS011;3814;51.454;12.616;2024-03-07T00:46:08;55.78;;;20.83;;
7545;SDS011;3814;51.454;12.616;2024-03-07T00:48:33;54.50;;;19.77;;
7545;SDS011;3814;51.454;12.616;2024-03-07T00:50:58;60.15;;;22.25;;
7545;SDS011;3814;51.454;12.616;2024-03-07T00:53:24;51.20;;;20.27;;
7545;SDS011;3814;51.454;12.616;2024-03-07T00:55:49;59.17;;;21.33;;
7545;SDS011;3814;51.454;12.616;2024-03-07T00:58:15;56.10;;;21.07;;
7545;SDS011;3814;51.454;12.616;2024-03-07T01:00:40;56.67;;;20.60;;
7545;SDS011;3814;51.454;12.616;2024-03-07T01:03:08;60.95;;;22.95;;
7545;SDS011;3814;51.454;12.616;2024-03-07T01:05:36;61.92;;;22.48;;
7545;SDS011;3814;51.454;12.616;2024-03-07T01:08:01;63.90;;;22.83;;
7545;SDS011;3814;51.454;12.616;2024-03-07T01:10:27;57.85;;;21.33;;
7545;SDS011;3814;51.454;12.616;2024-03-07T01:12:53;62.13;;;21.08;;
7545;SDS011;3814;51.454;12.616;2024-03-07T01:15:22;54.85;;;21.77;;
7545;SDS011;3814;51.454;12.616;2024-03-07T01:17:47;62.33;;;22.30;;
7545;SDS011;3814;51.454;12.616;2024-03-07T01:20:13;53.65;;;22.30;;
7545;SDS011;3814;51.454;12.616;2024-03-07T01:22:38;56.78;;;21.98;;
7545;SDS011;3814;51.454;12.616;2024-03-07T01:25:04;55.23;;;19.97;;
7545;SDS011;3814;51.454;12.616;2024-03-07T01:27:30;61.88;;;22.77;;
7545;SDS011;3814;51.454;12.616;2024-03-07T01:29:55;46.17;;;19.87;;
7545;SDS011;3814;51.454;12.616;2024-03-07T01:32:20;53.73;;;21.30;;
7545;SDS011;3814;51.454;12.616;2024-03-07T01:34:46;46.75;;;19.70;;
7545;SDS011;3814;51.454;12.616;2024-03-07T01:37:11;55.43;;;21.63;;
7545;SDS011;3814;51.454;12.616;2024-03-07T01:39:36;52.60;;;19.93;;
7545;SDS011;3814;51.454;12.616;2024-03-07T01:42:02;50.57;;;21.03;;
7545;SDS011;3814;51.454;12.616;2024-03-07T01:44:27;53.90;;;21.80;;
7545;SDS011;3814;51.454;12.616;2024-03-07T01:46:56;50.95;;;18.88;;
7545;SDS011;3814;51.454;12.616;2024-03-07T01:49:21;53.73;;;21.40;;
7545;SDS011;3814;51.454;12.616;2024-03-07T01:51:47;56.63;;;22.00;;
7545;SDS011;3814;51.454;12.616;2024-03-07T01:54:13;53.83;;;20.85;;
7545;SDS011;3814;51.454;12.616;2024-03-07T01:56:38;51.47;;;20.37;;
7545;SDS011;3814;51.454;12.616;2024-03-07T01:59:04;50.67;;;20.13;;
7545;SDS011;3814;51.454;12.616;2024-03-07T02:01:30;48.78;;;19.73;;
7545;SDS011;3814;51.454;12.616;2024-03-07T02:03:55;57.67;;;21.70;;
7545;SDS011;3814;51.454;12.616;2024-03-07T02:06:21;50.70;;;20.25;;
7545;SDS011;3814;51.454;12.616;2024-03-07T02:08:47;55.72;;;21.77;;
7545;SDS011;3814;51.454;12.616;2024-03-07T02:11:12;53.22;;;20.83;;
7545;SDS011;3814;51.454;12.616;2024-03-07T02:13:38;55.47;;;20.35;;
7545;SDS011;3814;51.454;12.616;2024-03-07T02:16:03;58.43;;;21.07;;
7545;SDS011;3814;51.454;12.616;2024-03-07T02:18:29;63.70;;;21.70;;
7545;SDS011;3814;51.454;12.616;2024-03-07T02:20:54;61.30;;;22.00;;
7545;SDS011;3814;51.454;12.616;2024-03-07T02:23:20;55.35;;;20.52;;
7545;SDS011;3814;51.454;12.616;2024-03-07T02:25:45;60.47;;;21.13;;
7545;SDS011;3814;51.454;12.616;2024-03-07T02:28:10;60.37;;;21.97;;
7545;SDS011;3814;51.454;12.616;2024-03-07T02:30:35;66.00;;;22.30;;
7545;SDS011;3814;51.454;12.616;2024-03-07T02:33:01;63.70;;;22.67;;
7545;SDS011;3814;51.454;12.616;2024-03-07T02:35:34;59.67;;;20.38;;
7545;SDS011;3814;51.454;12.616;2024-03-07T02:38:01;61.63;;;21.60;;
7545;SDS011;3814;51.454;12.616;2024-03-07T02:40:28;70.53;;;23.55;;
7545;SDS011;3814;51.454;12.616;2024-03-07T02:42:53;68.15;;;22.98;;
7545;SDS011;3814;51.454;12.616;2024-03-07T02:45:18;64.83;;;23.43;;
7545;SDS011;3814;51.454;12.616;2024-03-07T02:47:44;70.40;;;24.90;;
7545;SDS011;3814;51.454;12.616;2024-03-07T02:50:09;73.43;;;24.13;;
7545;SDS011;3814;51.454;12.616;2024-03-07T02:52:35;66.93;;;22.30;;
7545;SDS011;3814;51.454;12.616;2024-03-07T02:55:00;62.33;;;22.23;;
7545;SDS011;3814;51.454;12.616;2024-03-07T02:57:28;70.22;;;23.17;;
7545;SDS011;3814;51.454;12.616;2024-03-07T02:59:53;69.23;;;23.63;;
7545;SDS011;3814;51.454;12.616;2024-03-07T03:02:18;60.67;;;21.67;;
7545;SDS011;3814;51.454;12.616;2024-03-07T03:04:44;80.33;;;25.17;;
7545;SDS011;3814;51.454;12.616;2024-03-07T03:07:09;68.60;;;23.23;;
7545;SDS011;3814;51.454;12.616;2024-03-07T03:09:35;67.97;;;24.27;;
7545;SDS011;3814;51.454;12.616;2024-03-07T03:12:04;67.15;;;21.80;;
7545;SDS011;3814;51.454;12.616;2024-03-07T03:14:30;64.53;;;22.35;;
7545;SDS011;3814;51.454;12.616;2024-03-07T03:16:55;61.80;;;22.73;;
7545;SDS011;3814;51.454;12.616;2024-03-07T03:19:21;65.53;;;23.33;;
7545;SDS011;3814;51.454;12.616;2024-03-07T03:21:48;64.38;;;22.92;;
7545;SDS011;3814;51.454;12.616;2024-03-07T03:24:13;65.70;;;22.00;;
7545;SDS011;3814;51.454;12.616;2024-03-07T03:26:40;61.20;;;21.60;;
7545;SDS011;3814;51.454;12.616;2024-03-07T03:29:07;56.70;;;21.25;;
7545;SDS011;3814;51.454;12.616;2024-03-07T03:31:34;68.97;;;23.20;;
7545;SDS011;3814;51.454;12.616;2024-03-07T03:34:00;60.28;;;22.60;;
7545;SDS011;3814;51.454;12.616;2024-03-07T03:36:26;57.10;;;21.40;;
7545;SDS011;3814;51.454;12.616;2024-03-07T03:38:51;60.33;;;21.50;;
7545;SDS011;3814;51.454;12.616;2024-03-07T03:41:16;55.13;;;20.03;;
7545;SDS011;3814;51.454;12.616;2024-03-07T03:43:42;52.87;;;19.73;;
7545;SDS011;3814;51.454;12.616;2024-03-07T03:46:09;50.72;;;19.73;;
7545;SDS011;3814;51.454;12.616;2024-03-07T03:48:35;54.85;;;21.48;;
7545;SDS011;3814;51.454;12.616;2024-03-07T03:51:00;57.73;;;20.30;;
7545;SDS011;3814;51.454;12.616;2024-03-07T03:53:26;53.57;;;20.30;;
7545;SDS011;3814;51.454;12.616;2024-03-07T03:55:51;56.83;;;22.10;;
7545;SDS011;3814;51.454;12.616;2024-03-07T03:58:16;55.07;;;21.47;;
7545;SDS011;3814;51.454;12.616;2024-03-07T04:00:41;57.93;;;21.40;;
7545;SDS011;3814;51.454;12.616;2024-03-07T04:03:07;58.57;;;21.73;;
7545;SDS011;3814;51.454;12.616;2024-03-07T04:05:32;55.27;;;20.83;;
7545;SDS011;3814;51.454;12.616;2024-03-07T04:07:57;59.53;;;20.77;;
7545;SDS011;3814;51.454;12.616;2024-03-07T04:10:23;58.90;;;22.05;;
7545;SDS011;3814;51.454;12.616;2024-03-07T04:12:48;52.57;;;20.30;;
7545;SDS011;3814;51.454;12.616;2024-03-07T04:15:14;55.70;;;20.93;;
7545;SDS011;3814;51.454;12.616;2024-03-07T04:17:43;58.47;;;22.40;;
7545;SDS011;3814;51.454;12.616;2024-03-07T04:20:10;58.60;;;22.00;;
7545;SDS011;3814;51.454;12.616;2024-03-07T04:22:36;57.70;;;22.20;;
7545;SDS011;3814;51.454;12.616;2024-03-07T04:25:04;53.50;;;20.50;;
7545;SDS011;3814;51.454;12.616;2024-03-07T04:27:32;54.95;;;20.83;;
7545;SDS011;3814;51.454;12.616;2024-03-07T04:29:59;49.05;;;19.67;;
7545;SDS011;3814;51.454;12.616;2024-03-07T04:32:24;46.28;;;20.50;;
7545;SDS011;3814;51.454;12.616;2024-03-07T04:34:49;46.83;;;19.27;;
7545;SDS011;3814;51.454;12.616;2024-03-07T04:37:15;51.77;;;21.07;;
7545;SDS011;3814;51.454;12.616;2024-03-07T04:39:40;48.40;;;20.63;;
7545;SDS011;3814;51.454;12.616;2024-03-07T04:42:06;48.13;;;20.23;;
7545;SDS011;3814;51.454;12.616;2024-03-07T04:44:33;48.30;;;21.00;;
7545;SDS011;3814;51.454;12.616;2024-03-07T04:47:00;39.35;;;18.25;;
7545;SDS011;3814;51.454;12.616;2024-03-07T04:49:27;42.78;;;19.70;;
7545;SDS011;3814;51.454;12.616;2024-03-07T04:51:54;40.17;;;19.40;;
7545;SDS011;3814;51.454;12.616;2024-03-07T04:54:20;41.83;;;19.77;;
7545;SDS011;3814;51.454;12.616;2024-03-07T04:56:46;45.05;;;20.77;;
7545;SDS011;3814;51.454;12.616;2024-03-07T04:59:12;44.63;;;19.05;;
7545;SDS011;3814;51.454;12.616;2024-03-07T05:01:38;38.22;;;17.75;;
7545;SDS011;3814;51.454;12.616;2024-03-07T05:04:04;45.30;;;19.98;;
7545;SDS011;3814;51.454;12.616;2024-03-07T05:06:29;40.88;;;18.77;;
7545;SDS011;3814;51.454;12.616;2024-03-07T05:08:58;48.78;;;21.15;;
7545;SDS011;3814;51.454;12.616;2024-03-07T05:11:24;43.05;;;19.95;;
7545;SDS011;3814;51.454;12.616;2024-03-07T05:13:49;44.67;;;20.23;;
7545;SDS011;3814;51.454;12.616;2024-03-07T05:16:14;45.97;;;20.30;;
7545;SDS011;3814;51.454;12.616;2024-03-07T05:18:39;45.40;;;20.27;;
7545;SDS011;3814;51.454;12.616;2024-03-07T05:21:08;37.95;;;19.48;;
7545;SDS011;3814;51.454;12.616;2024-03-07T05:23:52;43.00;;;20.83;;
7545;SDS011;3814;51.454;12.616;2024-03-07T05:26:17;50.17;;;20.70;;
7545;SDS011;3814;51.454;12.616;2024-03-07T05:28:42;46.07;;;20.37;;
7545;SDS011;3814;51.454;12.616;2024-03-07T05:31:08;43.60;;;19.67;;
7545;SDS011;3814;51.454;12.616;2024-03-07T05:33:37;48.90;;;21.45;;
7545;SDS011;3814;51.454;12.616;2024-03-07T05:36:03;46.97;;;21.05;;
7545;SDS011;3814;51.454;12.616;2024-03-07T05:38:39;50.45;;;19.75;;
7545;SDS011;3814;51.454;12.616;2024-03-07T05:41:10;42.17;;;19.42;;
7545;SDS011;3814;51.454;12.616;2024-03-07T05:43:37;46.80;;;19.75;;
7545;SDS011;3814;51.454;12.616;2024-03-07T05:46:02;40.45;;;17.92;;
7545;SDS011;3814;51.454;12.616;2024-03-07T05:48:29;43.35;;;19.75;;
7545;SDS011;3814;51.454;12.616;2024-03-07T05:50:54;43.20;;;20.17;;
7545;SDS011;3814;51.454;12.616;2024-03-07T05:53:19;41.93;;;19.23;;
7545;SDS011;3814;51.454;12.616;2024-03-07T05:55:45;44.38;;;19.88;;
7545;SDS011;3814;51.454;12.616;2024-03-07T05:58:10;43.15;;;18.63;;
7545;SDS011;3814;51.454;12.616;2024-03-07T06:00:36;42.03;;;18.50;;
7545;SDS011;3814;51.454;12.616;2024-03-07T06:03:02;43.72;;;19.35;;
7545;SDS011;3814;51.454;12.616;2024-03-07T06:05:29;40.60;;;18.15;;
7545;SDS011;3814;51.454;12.616;2024-03-07T06:07:55;44.30;;;19.07;;
7545;SDS011;3814;51.454;12.616;2024-03-07T06:10:21;41.42;;;19.33;;
7545;SDS011;3814;51.454;12.616;2024-03-07T06:12:49;48.97;;;21.45;;
7545;SDS011;3814;51.454;12.616;2024-03-07T06:15:14;49.70;;;20.07;;
7545;SDS011;3814;51.454;12.616;2024-03-07T06:17:39;42.77;;;19.83;;
7545;SDS011;3814;51.454;12.616;2024-03-07T06:20:05;47.23;;;19.93;;
7545;SDS011;3814;51.454;12.616;2024-03-07T06:22:47;48.58;;;20.73;;
7545;SDS011;3814;51.454;12.616;2024-03-07T06:25:13;49.95;;;21.83;;
7545;SDS011;3814;51.454;12.616;2024-03-07T06:27:44;52.40;;;21.52;;
7545;SDS011;3814;51.454;12.616;2024-03-07T06:30:13;50.28;;;20.20;;
7545;SDS011;3814;51.454;12.616;2024-03-07T06:32:41;44.60;;;20.17;;
7545;SDS011;3814;51.454;12.616;2024-03-07T06:35:06;47.40;;;20.13;;
7545;SDS011;3814;51.454;12.616;2024-03-07T06:37:32;45.72;;;19.70;;
7545;SDS011;3814;51.454;12.616;2024-03-07T06:39:57;47.13;;;21.00;;
7545;SDS011;3814;51.454;12.616;2024-03-07T06:42:22;47.33;;;19.43;;
7545;SDS011;3814;51.454;12.616;2024-03-07T06:44:48;41.00;;;19.03;;
7545;SDS011;3814;51.454;12.616;2024-03-07T06:47:13;38.10;;;18.57;;
7545;SDS011;3814;51.454;12.616;2024-03-07T06:49:38;44.40;;;20.20;;
7545;SDS011;3814;51.454;12.616;2024-03-07T06:52:04;44.72;;;19.27;;
7545;SDS011;3814;51.454;12.616;2024-03-07T06:54:30;46.90;;;19.27;;
7545;SDS011;3814;51.454;12.616;2024-03-07T06:56:56;43.97;;;19.13;;
7545;SDS011;3814;51.454;12.616;2024-03-07T06:59:22;45.30;;;18.20;;
7545;SDS011;3814;51.454;12.616;2024-03-07T07:01:47;39.43;;;18.70;;
7545;SDS011;3814;51.454;12.616;2024-03-07T07:04:12;32.87;;;16.30;;
7545;SDS011;3814;51.454;12.616;2024-03-07T07:06:39;31.15;;;16.15;;
7545;SDS011;3814;51.454;12.616;2024-03-07T07:09:07;32.38;;;15.57;;
7545;SDS011;3814;51.454;12.616;2024-03-07T07:11:33;34.25;;;16.60;;
7545;SDS011;3814;51.454;12.616;2024-03-07T07:13:59;31.27;;;15.23;;
7545;SDS011;3814;51.454;12.616;2024-03-07T07:16:26;37.58;;;17.30;;
7545;SDS011;3814;51.454;12.616;2024-03-07T07:18:52;30.33;;;14.90;;
7545;SDS011;3814;51.454;12.616;2024-03-07T07:21:17;34.70;;;15.18;;
7545;SDS011;3814;51.454;12.616;2024-03-07T07:23:42;31.13;;;14.57;;
7545;SDS011;3814;51.454;12.616;2024-03-07T07:26:08;27.20;;;13.47;;
7545;SDS011;3814;51.454;12.616;2024-03-07T07:28:33;23.35;;;11.43;;
7545;SDS011;3814;51.454;12.616;2024-03-07T07:31:01;26.88;;;12.02;;
7545;SDS011;3814;51.454;12.616;2024-03-07T07:33:26;25.93;;;11.07;;
7545;SDS011;3814;51.454;12.616;2024-03-07T07:35:51;20.03;;;9.70;;
7545;SDS011;3814;51.454;12.616;2024-03-07T07:38:17;24.00;;;10.93;;
7545;SDS011;3814;51.454;12.616;2024-03-07T07:40:42;22.70;;;10.37;;
7545;SDS011;3814;51.454;12.616;2024-03-07T07:43:09;21.20;;;10.90;;
7545;SDS011;3814;51.454;12.616;2024-03-07T07:45:38;22.67;;;10.82;;
7545;SDS011;3814;51.454;12.616;2024-03-07T07:48:04;22.95;;;10.05;;
7545;SDS011;3814;51.454;12.616;2024-03-07T07:50:29;21.17;;;9.82;;
7545;SDS011;3814;51.454;12.616;2024-03-07T07:52:56;20.73;;;9.70;;
7545;SDS011;3814;51.454;12.616;2024-03-07T07:55:29;20.50;;;10.60;;
7545;SDS011;3814;51.454;12.616;2024-03-07T07:57:55;21.05;;;10.20;;
7545;SDS011;3814;51.454;12.616;2024-03-07T08:00:24;21.10;;;9.45;;
7545;SDS011;3814;51.454;12.616;2024-03-07T08:03:03;16.27;;;8.32;;
7545;SDS011;3814;51.454;12.616;2024-03-07T08:05:31;16.85;;;8.55;;
7545;SDS011;3814;51.454;12.616;2024-03-07T08:07:58;16.88;;;8.60;;
7545;SDS011;3814;51.454;12.616;2024-03-07T08:10:31;16.42;;;8.73;;
7545;SDS011;3814;51.454;12.616;2024-03-07T08:12:57;16.48;;;8.88;;
7545;SDS011;3814;51.454;12.616;2024-03-07T08:15:25;15.82;;;7.90;;
7545;SDS011;3814;51.454;12.616;2024-03-07T08:17:51;15.95;;;8.80;;
7545;SDS011;3814;51.454;12.616;2024-03-07T08:20:17;14.05;;;7.65;;
7545;SDS011;3814;51.454;12.616;2024-03-07T08:22:45;16.13;;;7.85;;
7545;SDS011;3814;51.454;12.616;2024-03-07T08:25:12;14.35;;;7.75;;
7545;SDS011;3814;51.454;12.616;2024-03-07T08:27:39;15.50;;;7.93;;
7545;SDS011;3814;51.454;12.616;2024-03-07T08:30:07;13.05;;;7.18;;
7545;SDS011;3814;51.454;12.616;2024-03-07T08:32:33;14.55;;;8.35;;
7545;SDS011;3814;51.454;12.616;2024-03-07T08:35:01;14.02;;;8.23;;
7545;SDS011;3814;51.454;12.616;2024-03-07T08:37:31;16.08;;;8.18;;
7545;SDS011;3814;51.454;12.616;2024-03-07T08:39:57;16.02;;;8.02;;
7545;SDS011;3814;51.454;12.616;2024-03-07T08:42:22;12.63;;;7.53;;
7545;SDS011;3814;51.454;12.616;2024-03-07T08:44:48;17.00;;;8.17;;
7545;SDS011;3814;51.454;12.616;2024-03-07T08:47:13;12.77;;;7.45;;
7545;SDS011;3814;51.454;12.616;2024-03-07T08:49:38;13.80;;;8.43;;
7545;SDS011;3814;51.454;12.616;2024-03-07T08:52:04;15.98;;;8.15;;
7545;SDS011;3814;51.454;12.616;2024-03-07T08:54:31;15.75;;;7.80;;
7545;SDS011;3814;51.454;12.616;2024-03-07T08:56:57;17.87;;;7.53;;
7545;SDS011;3814;51.454;12.616;2024-03-07T08:59:22;14.67;;;8.33;;
7545;SDS011;3814;51.454;12.616;2024-03-07T09:01:47;12.63;;;7.00;;
7545;SDS011;3814;51.454;12.616;2024-03-07T09:04:13;13.25;;;6.97;;
7545;SDS011;3814;51.454;12.616;2024-03-07T09:06:39;13.15;;;7.20;;
7545;SDS011;3814;51.454;12.616;2024-03-07T09:09:06;11.55;;;6.82;;
7545;SDS011;3814;51.454;12.616;2024-03-07T09:11:33;12.07;;;6.80;;
7545;SDS011;3814;51.454;12.616;2024-03-07T09:13:59;15.43;;;7.50;;
7545;SDS011;3814;51.454;12.616;2024-03-07T09:16:24;13.10;;;6.57;;
7545;SDS011;3814;51.454;12.616;2024-03-07T09:18:49;12.03;;;6.67;;
7545;SDS011;3814;51.454;12.616;2024-03-07T09:21:16;13.68;;;6.82;;
7545;SDS011;3814;51.454;12.616;2024-03-07T09:23:42;12.27;;;6.70;;
7545;SDS011;3814;51.454;12.616;2024-03-07T09:26:07;11.97;;;6.47;;
7545;SDS011;3814;51.454;12.616;2024-03-07T09:28:33;14.30;;;7.10;;
7545;SDS011;3814;51.454;12.616;2024-03-07T09:30:58;13.93;;;8.03;;
7545;SDS011;3814;51.454;12.616;2024-03-07T09:33:23;12.67;;;7.70;;
7545;SDS011;3814;51.454;12.616;2024-03-07T09:35:49;12.15;;;6.68;;
7545;SDS011;3814;51.454;12.616;2024-03-07T09:38:14;13.67;;;7.33;;
7545;SDS011;3814;51.454;12.616;2024-03-07T09:40:40;15.67;;;8.30;;
7545;SDS011;3814;51.454;12.616;2024-03-07T09:43:05;13.30;;;7.30;;
7545;SDS011;3814;51.454;12.616;2024-03-07T09:45:32;14.75;;;6.80;;
7545;SDS011;3814;51.454;12.616;2024-03-07T09:47:59;13.50;;;8.52;;
7545;SDS011;3814;51.454;12.616;2024-03-07T09:50:24;13.77;;;7.07;;
7545;SDS011;3814;51.454;12.616;2024-03-07T09:52:52;14.05;;;7.20;;
7545;SDS011;3814;51.454;12.616;2024-03-07T09:55:18;15.53;;;8.00;;
7545;SDS011;3814;51.454;12.616;2024-03-07T09:57:47;14.68;;;7.78;;
7545;SDS011;3814;51.454;12.616;2024-03-07T10:00:15;13.90;;;7.85;;
7545;SDS011;3814;51.454;12.616;2024-03-07T10:02:47;14.93;;;7.20;;
7545;SDS011;3814;51.454;12.616;2024-03-07T10:05:14;13.10;;;7.30;;
7545;SDS011;3814;51.454;12.616;2024-03-07T10:07:41;16.35;;;8.45;;
7545;SDS011;3814;51.454;12.616;2024-03-07T10:10:07;17.60;;;9.18;;
7545;SDS011;3814;51.454;12.616;2024-03-07T10:12:36;13.93;;;7.78;;
7545;SDS011;3814;51.454;12.616;2024-03-07T10:15:03;15.80;;;7.50;;
7545;SDS011;3814;51.454;12.616;2024-03-07T10:17:30;15.70;;;7.93;;
7545;SDS011;3814;51.454;12.616;2024-03-07T10:19:57;15.30;;;7.43;;
7545;SDS011;3814;51.454;12.616;2024-03-07T10:22:25;14.68;;;8.05;;
7545;SDS011;3814;51.454;12.616;2024-03-07T10:24:53;15.38;;;8.13;;
7545;SDS011;3814;51.454;12.616;2024-03-07T10:27:19;15.50;;;8.32;;
7545;SDS011;3814;51.454;12.616;2024-03-07T10:29:46;14.10;;;7.90;;
7545;SDS011;3814;51.454;12.616;2024-03-07T10:32:12;16.65;;;9.07;;
7545;SDS011;3814;51.454;12.616;2024-03-07T10:34:38;15.38;;;8.85;;
7545;SDS011;3814;51.454;12.616;2024-03-07T10:37:04;16.07;;;9.40;;
7545;SDS011;3814;51.454;12.616;2024-03-07T10:39:30;15.73;;;8.93;;
7545;SDS011;3814;51.454;12.616;2024-03-07T10:41:56;17.95;;;10.77;;
7545;SDS011;3814;51.454;12.616;2024-03-07T10:44:30;16.42;;;10.00;;
7545;SDS011;3814;51.454;12.616;2024-03-07T10:46:56;18.33;;;9.48;;
7545;SDS011;3814;51.454;12.616;2024-03-07T10:49:25;14.27;;;8.63;;
7545;SDS011;3814;51.454;12.616;2024-03-07T10:52:03;16.42;;;9.60;;
7545;SDS011;3814;51.454;12.616;2024-03-07T11:00:15;17.40;;;8.15;;
7545;SDS011;3814;51.454;12.616;2024-03-07T11:02:59;15.07;;;8.90;;
7545;SDS011;3814;51.454;12.616;2024-03-07T11:05:27;13.55;;;7.93;;
7545;SDS011;3814;51.454;12.616;2024-03-07T11:07:58;15.35;;;8.73;;
7545;SDS011;3814;51.454;12.616;2024-03-07T11:10:24;12.63;;;7.78;;
7545;SDS011;3814;51.454;12.616;2024-03-07T11:12:50;15.13;;;8.75;;
7545;SDS011;3814;51.454;12.616;2024-03-07T11:15:16;16.17;;;8.50;;
7545;SDS011;3814;51.454;12.616;2024-03-07T11:17:45;14.50;;;8.65;;
7545;SDS011;3814;51.454;12.616;2024-03-07T11:20:34;14.30;;;8.63;;
7545;SDS011;3814;51.454;12.616;2024-03-07T11:23:00;19.27;;;8.10;;
7545;SDS011;3814;51.454;12.616;2024-03-07T11:25:26;14.43;;;7.40;;
7545;SDS011;3814;51.454;12.616;2024-03-07T11:27:59;16.88;;;8.52;;
7545;SDS011;3814;51.454;12.616;2024-03-07T11:30:25;18.13;;;9.30;;
7545;SDS011;3814;51.454;12.616;2024-03-07T11:32:51;16.67;;;9.45;;
7545;SDS011;3814;51.454;12.616;2024-03-07T11:35:20;13.90;;;7.93;;
7545;SDS011;3814;51.454;12.616;2024-03-07T11:37:56;18.05;;;9.32;;
7545;SDS011;3814;51.454;12.616;2024-03-07T11:42:49;18.13;;;8.88;;
7545;SDS011;3814;51.454;12.616;2024-03-07T11:45:16;15.43;;;8.85;;
7545;SDS011;3814;51.454;12.616;2024-03-07T11:47:51;19.23;;;8.27;;
7545;SDS011;3814;51.454;12.616;2024-03-07T11:50:25;18.38;;;9.00;;
7545;SDS011;3814;51.454;12.616;2024-03-07T11:52:54;15.02;;;9.00;;
7545;SDS011;3814;51.454;12.616;2024-03-07T11:55:21;13.02;;;7.28;;
7545;SDS011;3814;51.454;12.616;2024-03-07T11:57:46;16.13;;;8.95;;
7545;SDS011;3814;51.454;12.616;2024-03-07T12:00:12;16.42;;;8.30;;
7545;SDS011;3814;51.454;12.616;2024-03-07T12:02:39;16.75;;;8.50;;
7545;SDS011;3814;51.454;12.616;2024-03-07T12:05:05;13.90;;;7.20;;
7545;SDS011;3814;51.454;12.616;2024-03-07T12:07:31;14.30;;;7.95;;
7545;SDS011;3814;51.454;12.616;2024-03-07T12:09:56;13.20;;;6.82;;
7545;SDS011;3814;51.454;12.616;2024-03-07T12:12:22;14.40;;;8.30;;
7545;SDS011;3814;51.454;12.616;2024-03-07T12:14:49;14.13;;;7.97;;
7545;SDS011;3814;51.454;12.616;2024-03-07T12:17:17;15.00;;;7.45;;
7545;SDS011;3814;51.454;12.616;2024-03-07T12:19:43;15.13;;;7.18;;
7545;SDS011;3814;51.454;12.616;2024-03-07T12:22:08;13.60;;;7.55;;
7545;SDS011;3814;51.454;12.616;2024-03-07T12:24:40;13.23;;;7.35;;
7545;SDS011;3814;51.454;12.616;2024-03-07T12:27:07;13.82;;;7.45;;
7545;SDS011;3814;51.454;12.616;2024-03-07T12:29:34;15.75;;;7.82;;
7545;SDS011;3814;51.454;12.616;2024-03-07T12:32:02;13.70;;;7.30;;
7545;SDS011;3814;51.454;12.616;2024-03-07T12:34:28;15.55;;;7.22;;
7545;SDS011;3814;51.454;12.616;2024-03-07T12:36:55;15.45;;;8.60;;
7545;SDS011;3814;51.454;12.616;2024-03-07T12:39:24;12.60;;;6.85;;
7545;SDS011;3814;51.454;12.616;2024-03-07T12:41:50;14.10;;;7.78;;
7545;SDS011;3814;51.454;12.616;2024-03-07T12:44:20;14.65;;;7.97;;
7545;SDS011;3814;51.454;12.616;2024-03-07T12:46:46;15.80;;;7.73;;
7545;SDS011;3814;51.454;12.616;2024-03-07T12:49:12;16.58;;;8.95;;
7545;SDS011;3814;51.454;12.616;2024-03-07T12:51:40;14.15;;;9.32;;
7545;SDS011;3814;51.454;12.616;2024-03-07T12:54:06;14.15;;;7.57;;
7545;SDS011;3814;51.454;12.616;2024-03-07T12:56:34;15.93;;;8.45;;
7545;SDS011;3814;51.454;12.616;2024-03-07T12:59:01;16.33;;;9.05;;
7545;SDS011;3814;51.454;12.616;2024-03-07T13:01:26;14.45;;;8.48;;
7545;SDS011;3814;51.454;12.616;2024-03-07T13:03:52;14.93;;;7.75;;
7545;SDS011;3814;51.454;12.616;2024-03-07T13:06:18;17.38;;;8.75;;
7545;SDS011;3814;51.454;12.616;2024-03-07T13:08:50;16.55;;;8.23;;
7545;SDS011;3814;51.454;12.616;2024-03-07T13:11:15;14.40;;;7.73;;
7545;SDS011;3814;51.454;12.616;2024-03-07T13:13:41;15.10;;;8.43;;
7545;SDS011;3814;51.454;12.616;2024-03-07T13:16:06;16.93;;;8.57;;
7545;SDS011;3814;51.454;12.616;2024-03-07T13:18:31;16.83;;;8.93;;
7545;SDS011;3814;51.454;12.616;2024-03-07T13:20:58;13.52;;;8.23;;
7545;SDS011;3814;51.454;12.616;2024-03-07T13:23:23;16.93;;;8.93;;
7545;SDS011;3814;51.454;12.616;2024-03-07T13:25:52;17.45;;;8.70;;
7545;SDS011;3814;51.454;12.616;2024-03-07T13:28:18;15.50;;;9.10;;
7545;SDS011;3814;51.454;12.616;2024-03-07T13:30:49;16.58;;;9.05;;
7545;SDS011;3814;51.454;12.616;2024-03-07T13:33:14;15.70;;;8.73;;
7545;SDS011;3814;51.454;12.616;2024-03-07T13:35:39;18.40;;;8.60;;
7545;SDS011;3814;51.454;12.616;2024-03-07T13:38:05;15.40;;;8.35;;
7545;SDS011;3814;51.454;12.616;2024-03-07T13:40:30;14.93;;;8.63;;
7545;SDS011;3814;51.454;12.616;2024-03-07T13:45:21;17.07;;;8.10;;
7545;SDS011;3814;51.454;12.616;2024-03-07T13:47:47;13.98;;;8.07;;
7545;SDS011;3814;51.454;12.616;2024-03-07T13:50:14;14.43;;;7.75;;
7545;SDS011;3814;51.454;12.616;2024-03-07T13:52:40;14.25;;;8.30;;
7545;SDS011;3814;51.454;12.616;2024-03-07T13:55:09;15.85;;;8.40;;
7545;SDS011;3814;51.454;12.616;2024-03-07T13:57:41;14.30;;;7.53;;
7545;SDS011;3814;51.454;12.616;2024-03-07T14:00:20;13.70;;;8.30;;
7545;SDS011;3814;51.454;12.616;2024-03-07T14:08:33;15.40;;;8.02;;
7545;SDS011;3814;51.454;12.616;2024-03-07T14:20:06;13.73;;;7.30;;
7545;SDS011;3814;51.454;12.616;2024-03-07T14:26:26;15.30;;;8.25;;
7545;SDS011;3814;51.454;12.616;2024-03-07T14:32:03;14.98;;;7.50;;
7545;SDS011;3814;51.454;12.616;2024-03-07T14:36:57;14.18;;;8.55;;
7545;SDS011;3814;51.454;12.616;2024-03-07T14:39:29;16.58;;;7.88;;
7545;SDS011;3814;51.454;12.616;2024-03-07T14:41:58;13.85;;;8.10;;
7545;SDS011;3814;51.454;12.616;2024-03-07T14:44:24;15.50;;;7.47;;
7545;SDS011;3814;51.454;12.616;2024-03-07T14:46:52;16.25;;;7.82;;
7545;SDS011;3814;51.454;12.616;2024-03-07T14:49:19;16.10;;;7.97;;
7545;SDS011;3814;51.454;12.616;2024-03-07T14:51:44;15.57;;;8.70;;
7545;SDS011;3814;51.454;12.616;2024-03-07T14:54:11;18.60;;;8.07;;
7545;SDS011;3814;51.454;12.616;2024-03-07T14:56:36;13.93;;;8.20;;
7545;SDS011;3814;51.454;12.616;2024-03-07T14:59:02;16.65;;;8.50;;
7545;SDS011;3814;51.454;12.616;2024-03-07T15:01:31;12.82;;;7.80;;
7545;SDS011;3814;51.454;12.616;2024-03-07T15:03:58;12.75;;;7.35;;
7545;SDS011;3814;51.454;12.616;2024-03-07T15:06:25;15.82;;;8.25;;
7545;SDS011;3814;51.454;12.616;2024-03-07T15:08:50;14.83;;;8.13;;
7545;SDS011;3814;51.454;12.616;2024-03-07T15:11:23;13.43;;;8.03;;
7545;SDS011;3814;51.454;12.616;2024-03-07T15:13:53;15.00;;;8.07;;